Wetterdaten: Freitag, 22.03.2019
Datum Zeit Temp. A. Temp. A. min Temp. A. max Feuchte A. Luftdruck Regen Wind Richtung Richtung Sonnenschein UV Solar Windben
22.03.2019 00:00 9,7 C 9,7 C 9,8 C 83 % 1032,9 hPa 0,0 l/m 0,0 km/h (0 Bft) N 360 0 min 0,0 UV-I 0 W/m 3,2 km/h (1 Bft)
22.03.2019 00:05 9,5 C 9,5 C 9,7 C 84 % 1032,9 hPa 0,0 l/m 0,0 km/h (0 Bft) N 360 0 min 0,0 UV-I 0 W/m 3,2 km/h (1 Bft)
22.03.2019 00:10 9,4 C 9,4 C 9,5 C 85 % 1032,8 hPa 0,0 l/m 3,2 km/h (1 Bft) N 360 0 min 0,0 UV-I 0 W/m 4,8 km/h (1 Bft)
22.03.2019 00:15 9,4 C 9,4 C 9,4 C 85 % 1032,9 hPa 0,0 l/m 4,8 km/h (1 Bft) N 360 0 min 0,0 UV-I 0 W/m 8,0 km/h (2 Bft)
22.03.2019 00:20 9,4 C 9,4 C 9,4 C 85 % 1032,8 hPa 0,0 l/m 4,8 km/h (1 Bft) N 360 0 min 0,0 UV-I 0 W/m 8,0 km/h (2 Bft)
22.03.2019 00:25 9,4 C 9,4 C 9,4 C 85 % 1032,8 hPa 0,0 l/m 4,8 km/h (1 Bft) N 360 0 min 0,0 UV-I 0 W/m 6,4 km/h (2 Bft)
22.03.2019 00:30 9,3 C 9,3 C 9,4 C 86 % 1032,8 hPa 0,0 l/m 4,8 km/h (1 Bft) N 360 0 min 0,0 UV-I 0 W/m 8,0 km/h (2 Bft)
22.03.2019 00:35 9,3 C 9,3 C 9,3 C 86 % 1032,8 hPa 0,0 l/m 4,8 km/h (1 Bft) N 360 0 min 0,0 UV-I 0 W/m 8,0 km/h (2 Bft)
22.03.2019 00:40 9,2 C 9,2 C 9,3 C 86 % 1032,8 hPa 0,0 l/m 4,8 km/h (1 Bft) N 360 0 min 0,0 UV-I 0 W/m 8,0 km/h (2 Bft)
22.03.2019 00:45 9,2 C 9,1 C 9,2 C 86 % 1032,7 hPa 0,0 l/m 4,8 km/h (1 Bft) N 360 0 min 0,0 UV-I 0 W/m 9,7 km/h (2 Bft)
22.03.2019 00:50 9,1 C 9,1 C 9,2 C 87 % 1032,7 hPa 0,0 l/m 6,4 km/h (2 Bft) N 360 0 min 0,0 UV-I 0 W/m 12,9 km/h (3 Bft)
22.03.2019 00:55 9,1 C 9,0 C 9,1 C 87 % 1032,7 hPa 0,0 l/m 6,4 km/h (2 Bft) N 360 0 min 0,0 UV-I 0 W/m 11,3 km/h (2 Bft)
22.03.2019 01:00 8,9 C 8,9 C 9,1 C 87 % 1032,6 hPa 0,0 l/m 4,8 km/h (1 Bft) N 360 0 min 0,0 UV-I 0 W/m 8,0 km/h (2 Bft)
22.03.2019 01:05 8,9 C 8,9 C 9,0 C 87 % 1032,5 hPa 0,0 l/m 3,2 km/h (1 Bft) N 360 0 min 0,0 UV-I 0 W/m 6,4 km/h (2 Bft)
22.03.2019 01:10 8,8 C 8,8 C 8,9 C 88 % 1032,4 hPa 0,0 l/m 1,6 km/h (1 Bft) N 360 0 min 0,0 UV-I 0 W/m 4,8 km/h (1 Bft)
22.03.2019 01:15 8,7 C 8,7 C 8,8 C 87 % 1032,4 hPa 0,0 l/m 0,0 km/h (0 Bft) N 360 0 min 0,0 UV-I 0 W/m 3,2 km/h (1 Bft)
22.03.2019 01:20 8,6 C 8,6 C 8,7 C 87 % 1032,4 hPa 0,0 l/m 0,0 km/h (0 Bft) N 0 0 min 0,0 UV-I 0 W/m 0,0 km/h (0 Bft)
22.03.2019 01:25 8,4 C 8,4 C 8,6 C 87 % 1032,4 hPa 0,0 l/m 0,0 km/h (0 Bft) N 0 0 min 0,0 UV-I 0 W/m 0,0 km/h (0 Bft)
22.03.2019 01:30 8,3 C 8,3 C 8,4 C 87 % 1032,2 hPa 0,0 l/m 0,0 km/h (0 Bft) N 0 0 min 0,0 UV-I 0 W/m 0,0 km/h (0 Bft)
22.03.2019 01:35 8,1 C 8,1 C 8,3 C 88 % 1032,2 hPa 0,0 l/m 0,0 km/h (0 Bft) N 0 0 min 0,0 UV-I 0 W/m 0,0 km/h (0 Bft)
22.03.2019 01:40 8,0 C 7,9 C 8,1 C 89 % 1032,3 hPa 0,0 l/m 0,0 km/h (0 Bft) N 0 0 min 0,0 UV-I 0 W/m 0,0 km/h (0 Bft)
22.03.2019 01:45 7,9 C 7,9 C 8,0 C 88 % 1032,2 hPa 0,0 l/m 0,0 km/h (0 Bft) N 0 0 min 0,0 UV-I 0 W/m 0,0 km/h (0 Bft)
22.03.2019 01:50 7,7 C 7,7 C 7,9 C 88 % 1032,2 hPa 0,0 l/m 0,0 km/h (0 Bft) N 0 0 min 0,0 UV-I 0 W/m 0,0 km/h (0 Bft)
22.03.2019 01:55 7,4 C 7,4 C 7,7 C 88 % 1032,3 hPa 0,0 l/m 0,0 km/h (0 Bft) N 0 0 min 0,0 UV-I 0 W/m 0,0 km/h (0 Bft)
22.03.2019 02:00 7,4 C 7,4 C 7,4 C 89 % 1032,3 hPa 0,0 l/m 0,0 km/h (0 Bft) N 0 0 min 0,0 UV-I 0 W/m 0,0 km/h (0 Bft)
22.03.2019 02:05 7,4 C 7,3 C 7,4 C 91 % 1032,2 hPa 0,0 l/m 0,0 km/h (0 Bft) N 0 0 min 0,0 UV-I 0 W/m 0,0 km/h (0 Bft)
22.03.2019 02:10 7,5 C 7,4 C 7,5 C 91 % 1032,3 hPa 0,0 l/m 0,0 km/h (0 Bft) N 0 0 min 0,0 UV-I 0 W/m 0,0 km/h (0 Bft)
22.03.2019 02:15 7,6 C 7,4 C 7,6 C 92 % 1032,3 hPa 0,0 l/m 1,6 km/h (1 Bft) N 360 0 min 0,0 UV-I 0 W/m 4,8 km/h (1 Bft)
22.03.2019 02:20 7,6 C 7,6 C 7,6 C 91 % 1032,3 hPa 0,0 l/m 0,0 km/h (0 Bft) N 360 0 min 0,0 UV-I 0 W/m 3,2 km/h (1 Bft)
22.03.2019 02:25 7,6 C 7,6 C 7,6 C 91 % 1032,3 hPa 0,0 l/m 0,0 km/h (0 Bft) N 0 0 min 0,0 UV-I 0 W/m 0,0 km/h (0 Bft)
22.03.2019 02:30 7,4 C 7,4 C 7,6 C 90 % 1032,3 hPa 0,0 l/m 0,0 km/h (0 Bft) N 0 0 min 0,0 UV-I 0 W/m 0,0 km/h (0 Bft)
22.03.2019 02:35 7,3 C 7,3 C 7,4 C 90 % 1032,3 hPa 0,0 l/m 0,0 km/h (0 Bft) N 0 0 min 0,0 UV-I 0 W/m 0,0 km/h (0 Bft)
22.03.2019 02:40 7,1 C 7,1 C 7,3 C 90 % 1032,2 hPa 0,0 l/m 0,0 km/h (0 Bft) N 0 0 min 0,0 UV-I 0 W/m 0,0 km/h (0 Bft)
22.03.2019 02:45 7,1 C 7,0 C 7,1 C 91 % 1032,2 hPa 0,0 l/m 0,0 km/h (0 Bft) N 0 0 min 0,0 UV-I 0 W/m 0,0 km/h (0 Bft)
22.03.2019 02:50 6,9 C 6,9 C 7,1 C 91 % 1032,1 hPa 0,0 l/m 0,0 km/h (0 Bft) N 0 0 min 0,0 UV-I 0 W/m 0,0 km/h (0 Bft)
22.03.2019 02:55 6,9 C 6,9 C 6,9 C 92 % 1032,1 hPa 0,0 l/m 0,0 km/h (0 Bft) N 0 0 min 0,0 UV-I 0 W/m 0,0 km/h (0 Bft)
22.03.2019 03:00 6,9 C 6,9 C 6,9 C 92 % 1032,1 hPa 0,0 l/m 0,0 km/h (0 Bft) N 0 0 min 0,0 UV-I 0 W/m 0,0 km/h (0 Bft)
22.03.2019 03:05 6,9 C 6,9 C 6,9 C 92 % 1032,1 hPa 0,0 l/m 0,0 km/h (0 Bft) N 0 0 min 0,0 UV-I 0 W/m 0,0 km/h (0 Bft)
22.03.2019 03:10 6,8 C 6,8 C 6,9 C 91 % 1032,1 hPa 0,0 l/m 0,0 km/h (0 Bft) N 0 0 min 0,0 UV-I 0 W/m 0,0 km/h (0 Bft)
22.03.2019 03:15 6,6 C 6,6 C 6,8 C 90 % 1032,0 hPa 0,0 l/m 0,0 km/h (0 Bft) N 0 0 min 0,0 UV-I 0 W/m 0,0 km/h (0 Bft)
22.03.2019 03:20 6,4 C 6,4 C 6,6 C 91 % 1032,0 hPa 0,0 l/m 0,0 km/h (0 Bft) N 0 0 min 0,0 UV-I 0 W/m 0,0 km/h (0 Bft)
22.03.2019 03:25 6,4 C 6,3 C 6,4 C 91 % 1032,0 hPa 0,0 l/m 0,0 km/h (0 Bft) N 0 0 min 0,0 UV-I 0 W/m 0,0 km/h (0 Bft)
22.03.2019 03:30 6,2 C 6,2 C 6,3 C 91 % 1032,0 hPa 0,0 l/m 0,0 km/h (0 Bft) N 0 0 min 0,0 UV-I 0 W/m 0,0 km/h (0 Bft)
22.03.2019 03:35 6,1 C 6,1 C 6,2 C 91 % 1032,0 hPa 0,0 l/m 0,0 km/h (0 Bft) N 0 0 min 0,0 UV-I 0 W/m 0,0 km/h (0 Bft)
22.03.2019 03:40 6,0 C 6,0 C 6,1 C 92 % 1032,0 hPa 0,0 l/m 0,0 km/h (0 Bft) N 0 0 min 0,0 UV-I 0 W/m 0,0 km/h (0 Bft)
22.03.2019 03:45 5,9 C 5,9 C 6,1 C 92 % 1031,9 hPa 0,0 l/m 0,0 km/h (0 Bft) N 0 0 min 0,0 UV-I 0 W/m 0,0 km/h (0 Bft)
22.03.2019 03:50 5,8 C 5,8 C 5,9 C 92 % 1031,9 hPa 0,0 l/m 0,0 km/h (0 Bft) N 0 0 min 0,0 UV-I 0 W/m 0,0 km/h (0 Bft)
22.03.2019 03:55 5,8 C 5,8 C 5,8 C 92 % 1031,9 hPa 0,0 l/m 0,0 km/h (0 Bft) N 0 0 min 0,0 UV-I 0 W/m 0,0 km/h (0 Bft)
22.03.2019 04:00 5,7 C 5,7 C 5,8 C 92 % 1031,9 hPa 0,0 l/m 0,0 km/h (0 Bft) N 0 0 min 0,0 UV-I 0 W/m 0,0 km/h (0 Bft)
22.03.2019 04:05 5,8 C 5,7 C 5,8 C 93 % 1031,9 hPa 0,0 l/m 0,0 km/h (0 Bft) N 0 0 min 0,0 UV-I 0 W/m 0,0 km/h (0 Bft)
22.03.2019 04:10 5,9 C 5,8 C 5,9 C 93 % 1031,9 hPa 0,0 l/m 0,0 km/h (0 Bft) N 0 0 min 0,0 UV-I 0 W/m 0,0 km/h (0 Bft)
22.03.2019 04:15 5,9 C 5,9 C 6,0 C 93 % 1031,8 hPa 0,0 l/m 0,0 km/h (0 Bft) N 0 0 min 0,0 UV-I 0 W/m 0,0 km/h (0 Bft)
22.03.2019 04:20 6,1 C 6,0 C 6,1 C 93 % 1031,9 hPa 0,0 l/m 0,0 km/h (0 Bft) N 0 0 min 0,0 UV-I 0 W/m 0,0 km/h (0 Bft)
22.03.2019 04:25 6,1 C 6,1 C 6,1 C 93 % 1031,8 hPa 0,0 l/m 0,0 km/h (0 Bft) N 0 0 min 0,0 UV-I 0 W/m 0,0 km/h (0 Bft)
22.03.2019 04:30 6,2 C 6,1 C 6,2 C 93 % 1031,9 hPa 0,0 l/m 0,0 km/h (0 Bft) N 0 0 min 0,0 UV-I 0 W/m 0,0 km/h (0 Bft)
22.03.2019 04:35 6,1 C 6,1 C 6,2 C 92 % 1031,9 hPa 0,0 l/m 0,0 km/h (0 Bft) N 0 0 min 0,0 UV-I 0 W/m 0,0 km/h (0 Bft)
22.03.2019 04:40 5,9 C 5,9 C 6,1 C 92 % 1031,9 hPa 0,0 l/m 0,0 km/h (0 Bft) N 0 0 min 0,0 UV-I 0 W/m 0,0 km/h (0 Bft)
22.03.2019 04:45 5,7 C 5,7 C 5,9 C 92 % 1031,9 hPa 0,0 l/m 0,0 km/h (0 Bft) N 0 0 min 0,0 UV-I 0 W/m 0,0 km/h (0 Bft)
22.03.2019 04:50 5,6 C 5,6 C 5,7 C 91 % 1031,8 hPa 0,0 l/m 0,0 km/h (0 Bft) N 0 0 min 0,0 UV-I 0 W/m 0,0 km/h (0 Bft)
22.03.2019 04:55 5,4 C 5,4 C 5,6 C 91 % 1031,9 hPa 0,0 l/m 0,0 km/h (0 Bft) N 0 0 min 0,0 UV-I 0 W/m 0,0 km/h (0 Bft)
22.03.2019 05:00 5,3 C 5,3 C 5,4 C 92 % 1031,8 hPa 0,0 l/m 0,0 km/h (0 Bft) N 0 0 min 0,0 UV-I 0 W/m 0,0 km/h (0 Bft)
22.03.2019 05:05 5,3 C 5,3 C 5,3 C 92 % 1031,8 hPa 0,0 l/m 0,0 km/h (0 Bft) N 0 0 min 0,0 UV-I 0 W/m 0,0 km/h (0 Bft)
22.03.2019 05:10 5,3 C 5,3 C 5,3 C 93 % 1031,8 hPa 0,0 l/m 0,0 km/h (0 Bft) N 0 0 min 0,0 UV-I 0 W/m 0,0 km/h (0 Bft)
22.03.2019 05:15 5,3 C 5,2 C 5,3 C 92 % 1031,8 hPa 0,0 l/m 0,0 km/h (0 Bft) N 0 0 min 0,0 UV-I 0 W/m 0,0 km/h (0 Bft)
22.03.2019 05:20 5,2 C 5,2 C 5,3 C 93 % 1031,8 hPa 0,0 l/m 0,0 km/h (0 Bft) N 0 0 min 0,0 UV-I 0 W/m 0,0 km/h (0 Bft)
22.03.2019 05:25 5,2 C 5,1 C 5,2 C 93 % 1031,8 hPa 0,0 l/m 0,0 km/h (0 Bft) N 0 0 min 0,0 UV-I 0 W/m 0,0 km/h (0 Bft)
22.03.2019 05:30 5,2 C 5,1 C 5,2 C 93 % 1031,8 hPa 0,0 l/m 0,0 km/h (0 Bft) N 0 0 min 0,0 UV-I 0 W/m 0,0 km/h (0 Bft)
22.03.2019 05:35 5,2 C 5,1 C 5,2 C 93 % 1031,8 hPa 0,0 l/m 0,0 km/h (0 Bft) N 0 0 min 0,0 UV-I 0 W/m 0,0 km/h (0 Bft)
22.03.2019 05:40 5,2 C 5,1 C 5,2 C 93 % 1031,8 hPa 0,0 l/m 0,0 km/h (0 Bft) N 0 0 min 0,0 UV-I 0 W/m 0,0 km/h (0 Bft)
22.03.2019 05:45 5,3 C 5,2 C 5,3 C 94 % 1031,8 hPa 0,0 l/m 0,0 km/h (0 Bft) N 0 0 min 0,0 UV-I 0 W/m 0,0 km/h (0 Bft)
22.03.2019 05:50 5,3 C 5,3 C 5,3 C 93 % 1031,8 hPa 0,0 l/m 0,0 km/h (0 Bft) N 0 0 min 0,0 UV-I 0 W/m 0,0 km/h (0 Bft)
22.03.2019 05:55 5,3 C 5,2 C 5,3 C 93 % 1031,8 hPa 0,0 l/m 0,0 km/h (0 Bft) N 0 0 min 0,0 UV-I 0 W/m 0,0 km/h (0 Bft)
22.03.2019 06:00 5,2 C 5,2 C 5,3 C 93 % 1031,8 hPa 0,0 l/m 0,0 km/h (0 Bft) N 0 0 min 0,0 UV-I 0 W/m 0,0 km/h (0 Bft)
22.03.2019 06:05 5,2 C 5,1 C 5,2 C 93 % 1031,7 hPa 0,0 l/m 0,0 km/h (0 Bft) N 0 0 min 0,0 UV-I 0 W/m 0,0 km/h (0 Bft)
22.03.2019 06:10 5,1 C 5,1 C 5,2 C 93 % 1031,8 hPa 0,0 l/m 0,0 km/h (0 Bft) N 0 0 min 0,0 UV-I 0 W/m 0,0 km/h (0 Bft)
22.03.2019 06:15 5,0 C 5,0 C 5,1 C 92 % 1031,8 hPa 0,0 l/m 0,0 km/h (0 Bft) N 0 0 min 0,0 UV-I 0 W/m 0,0 km/h (0 Bft)
22.03.2019 06:20 4,9 C 4,9 C 5,0 C 92 % 1031,8 hPa 0,0 l/m 0,0 km/h (0 Bft) N 0 0 min 0,0 UV-I 0 W/m 0,0 km/h (0 Bft)
22.03.2019 06:25 4,8 C 4,8 C 4,9 C 92 % 1031,7 hPa 0,0 l/m 0,0 km/h (0 Bft) N 0 0 min 0,0 UV-I 0 W/m 0,0 km/h (0 Bft)
22.03.2019 06:30 4,8 C 4,8 C 4,8 C 93 % 1031,6 hPa 0,0 l/m 0,0 km/h (0 Bft) N 0 0 min 0,0 UV-I 0 W/m 0,0 km/h (0 Bft)
22.03.2019 06:35 4,8 C 4,8 C 4,8 C 93 % 1031,6 hPa 0,0 l/m 0,0 km/h (0 Bft) N 0 0 min 0,0 UV-I 0 W/m 0,0 km/h (0 Bft)
22.03.2019 06:40 4,8 C 4,8 C 4,8 C 94 % 1031,7 hPa 0,0 l/m 0,0 km/h (0 Bft) N 0 0 min 0,0 UV-I 5 W/m 0,0 km/h (0 Bft)
22.03.2019 06:45 4,9 C 4,8 C 4,9 C 94 % 1031,7 hPa 0,0 l/m 0,0 km/h (0 Bft) N 0 0 min 0,0 UV-I 7 W/m 0,0 km/h (0 Bft)
22.03.2019 06:50 4,8 C 4,8 C 4,9 C 92 % 1031,7 hPa 0,0 l/m 0,0 km/h (0 Bft) N 0 0 min 0,0 UV-I 11 W/m 0,0 km/h (0 Bft)
22.03.2019 06:55 4,7 C 4,7 C 4,8 C 93 % 1031,7 hPa 0,0 l/m 0,0 km/h (0 Bft) N 0 0 min 0,0 UV-I 14 W/m 0,0 km/h (0 Bft)
22.03.2019 07:00 4,7 C 4,7 C 4,8 C 93 % 1031,8 hPa 0,0 l/m 0,0 km/h (0 Bft) N 0 0 min 0,0 UV-I 19 W/m 0,0 km/h (0 Bft)
22.03.2019 07:05 4,7 C 4,7 C 4,7 C 93 % 1031,8 hPa 0,0 l/m 0,0 km/h (0 Bft) N 0 0 min 0,0 UV-I 23 W/m 0,0 km/h (0 Bft)
22.03.2019 07:10 4,8 C 4,7 C 4,8 C 93 % 1031,8 hPa 0,0 l/m 0,0 km/h (0 Bft) N 0 0 min 0,0 UV-I 28 W/m 0,0 km/h (0 Bft)
22.03.2019 07:15 4,9 C 4,8 C 4,9 C 94 % 1031,9 hPa 0,0 l/m 0,0 km/h (0 Bft) N 0 0 min 0,0 UV-I 32 W/m 0,0 km/h (0 Bft)
22.03.2019 07:20 5,0 C 4,9 C 5,0 C 94 % 1031,9 hPa 0,0 l/m 0,0 km/h (0 Bft) N 0 0 min 0,0 UV-I 33 W/m 0,0 km/h (0 Bft)
22.03.2019 07:25 5,0 C 4,9 C 5,1 C 93 % 1032,0 hPa 0,0 l/m 0,0 km/h (0 Bft) N 0 0 min 0,0 UV-I 39 W/m 0,0 km/h (0 Bft)
22.03.2019 07:30 4,9 C 4,9 C 5,0 C 92 % 1032,0 hPa 0,0 l/m 0,0 km/h (0 Bft) N 0 0 min 0,0 UV-I 42 W/m 0,0 km/h (0 Bft)
22.03.2019 07:35 4,8 C 4,8 C 4,9 C 92 % 1032,0 hPa 0,0 l/m 0,0 km/h (0 Bft) N 0 0 min 0,0 UV-I 46 W/m 0,0 km/h (0 Bft)
22.03.2019 07:40 4,8 C 4,8 C 4,8 C 92 % 1031,9 hPa 0,0 l/m 0,0 km/h (0 Bft) N 0 0 min 0,0 UV-I 54 W/m 0,0 km/h (0 Bft)
22.03.2019 07:45 5,0 C 4,8 C 5,0 C 94 % 1032,0 hPa 0,0 l/m 0,0 km/h (0 Bft) N 0 0 min 0,0 UV-I 56 W/m 0,0 km/h (0 Bft)
22.03.2019 07:50 5,3 C 5,0 C 5,3 C 95 % 1032,0 hPa 0,0 l/m 0,0 km/h (0 Bft) N 0 0 min 0,0 UV-I 62 W/m 0,0 km/h (0 Bft)
22.03.2019 07:55 5,7 C 5,4 C 5,7 C 95 % 1032,0 hPa 0,0 l/m 0,0 km/h (0 Bft) N 0 0 min 0,0 UV-I 69 W/m 0,0 km/h (0 Bft)
22.03.2019 08:00 6,0 C 5,7 C 6,0 C 95 % 1032,1 hPa 0,0 l/m 0,0 km/h (0 Bft) N 0 0 min 0,0 UV-I 88 W/m 0,0 km/h (0 Bft)
22.03.2019 08:05 6,1 C 6,0 C 6,1 C 94 % 1032,1 hPa 0,0 l/m 0,0 km/h (0 Bft) N 0 0 min 0,5 UV-I 90 W/m 0,0 km/h (0 Bft)
22.03.2019 08:10 6,3 C 6,2 C 6,3 C 94 % 1032,2 hPa 0,0 l/m 0,0 km/h (0 Bft) N 0 0 min 0,5 UV-I 77 W/m 0,0 km/h (0 Bft)
22.03.2019 08:15 6,6 C 6,3 C 6,6 C 94 % 1032,3 hPa 0,0 l/m 0,0 km/h (0 Bft) N 0 0 min 0,6 UV-I 116 W/m 0,0 km/h (0 Bft)
22.03.2019 08:20 6,8 C 6,6 C 6,8 C 93 % 1032,3 hPa 0,0 l/m 0,0 km/h (0 Bft) N 0 5 min 0,6 UV-I 155 W/m 0,0 km/h (0 Bft)
22.03.2019 08:25 7,1 C 6,8 C 7,1 C 92 % 1032,3 hPa 0,0 l/m 0,0 km/h (0 Bft) N 0 0 min 0,7 UV-I 155 W/m 0,0 km/h (0 Bft)
22.03.2019 08:30 7,3 C 7,1 C 7,3 C 92 % 1032,3 hPa 0,0 l/m 0,0 km/h (0 Bft) N 0 5 min 0,7 UV-I 188 W/m 0,0 km/h (0 Bft)
22.03.2019 08:35 7,6 C 7,3 C 7,6 C 91 % 1032,3 hPa 0,0 l/m 0,0 km/h (0 Bft) N 0 5 min 0,8 UV-I 171 W/m 0,0 km/h (0 Bft)
22.03.2019 08:40 7,8 C 7,6 C 7,8 C 90 % 1032,4 hPa 0,0 l/m 0,0 km/h (0 Bft) N 0 0 min 0,8 UV-I 155 W/m 0,0 km/h (0 Bft)
22.03.2019 08:45 8,2 C 7,9 C 8,2 C 89 % 1032,3 hPa 0,0 l/m 0,0 km/h (0 Bft) N 0 5 min 0,9 UV-I 214 W/m 0,0 km/h (0 Bft)
22.03.2019 08:50 8,6 C 8,2 C 8,6 C 88 % 1032,3 hPa 0,0 l/m 0,0 km/h (0 Bft) N 0 5 min 1,0 UV-I 244 W/m 0,0 km/h (0 Bft)
22.03.2019 08:55 9,0 C 8,6 C 9,1 C 86 % 1032,3 hPa 0,0 l/m 0,0 km/h (0 Bft) N 0 5 min 1,2 UV-I 283 W/m 0,0 km/h (0 Bft)
22.03.2019 09:00 9,4 C 9,0 C 9,4 C 84 % 1032,3 hPa 0,0 l/m 0,0 km/h (0 Bft) N 0 5 min 1,3 UV-I 306 W/m 0,0 km/h (0 Bft)
22.03.2019 09:05 9,8 C 9,4 C 9,8 C 82 % 1032,3 hPa 0,0 l/m 0,0 km/h (0 Bft) N 0 5 min 1,3 UV-I 309 W/m 0,0 km/h (0 Bft)
22.03.2019 09:10 10,1 C 9,8 C 10,2 C 80 % 1032,3 hPa 0,0 l/m 1,6 km/h (1 Bft) O 90 5 min 1,4 UV-I 332 W/m 3,2 km/h (1 Bft)
22.03.2019 09:15 10,4 C 10,2 C 10,4 C 80 % 1032,2 hPa 0,0 l/m 1,6 km/h (1 Bft) O 90 5 min 1,4 UV-I 322 W/m 4,8 km/h (1 Bft)
22.03.2019 09:20 10,6 C 10,4 C 10,6 C 79 % 1032,3 hPa 0,0 l/m 0,0 km/h (0 Bft) N 0 5 min 1,5 UV-I 318 W/m 0,0 km/h (0 Bft)
22.03.2019 09:25 10,9 C 10,6 C 10,9 C 78 % 1032,2 hPa 0,0 l/m 0,0 km/h (0 Bft) O-SO 112 5 min 1,6 UV-I 332 W/m 4,8 km/h (1 Bft)
22.03.2019 09:30 11,1 C 10,9 C 11,1 C 77 % 1032,2 hPa 0,0 l/m 3,2 km/h (1 Bft) SO 135 5 min 1,6 UV-I 311 W/m 4,8 km/h (1 Bft)
22.03.2019 09:35 11,2 C 11,1 C 11,2 C 77 % 1032,3 hPa 0,0 l/m 1,6 km/h (1 Bft) O-SO 112 5 min 1,7 UV-I 330 W/m 4,8 km/h (1 Bft)
22.03.2019 09:40 11,4 C 11,2 C 11,4 C 77 % 1032,2 hPa 0,0 l/m 3,2 km/h (1 Bft) O 90 5 min 1,9 UV-I 403 W/m 6,4 km/h (2 Bft)
22.03.2019 09:45 11,7 C 11,4 C 11,7 C 77 % 1032,1 hPa 0,0 l/m 3,2 km/h (1 Bft) O-SO 112 5 min 1,9 UV-I 403 W/m 6,4 km/h (2 Bft)
22.03.2019 09:50 12,1 C 11,7 C 12,1 C 74 % 1032,1 hPa 0,0 l/m 3,2 km/h (1 Bft) O-SO 112 5 min 2,0 UV-I 406 W/m 9,7 km/h (2 Bft)
22.03.2019 09:55 12,2 C 12,1 C 12,2 C 74 % 1032,1 hPa 0,0 l/m 3,2 km/h (1 Bft) SO 135 5 min 2,1 UV-I 431 W/m 8,0 km/h (2 Bft)
22.03.2019 10:00 12,3 C 12,2 C 12,3 C 74 % 1032,0 hPa 0,0 l/m 3,2 km/h (1 Bft) O-SO 112 5 min 2,2 UV-I 417 W/m 9,7 km/h (2 Bft)
22.03.2019 10:05 12,5 C 12,3 C 12,5 C 75 % 1032,0 hPa 0,0 l/m 1,6 km/h (1 Bft) O 90 5 min 2,3 UV-I 436 W/m 6,4 km/h (2 Bft)
22.03.2019 10:10 12,8 C 12,5 C 12,8 C 73 % 1032,0 hPa 0,0 l/m 1,6 km/h (1 Bft) O-SO 112 5 min 2,3 UV-I 431 W/m 6,4 km/h (2 Bft)
22.03.2019 10:15 12,9 C 12,8 C 12,9 C 71 % 1032,0 hPa 0,0 l/m 3,2 km/h (1 Bft) S-SO 157 5 min 2,3 UV-I 427 W/m 9,7 km/h (2 Bft)
22.03.2019 10:20 13,0 C 12,9 C 13,0 C 71 % 1032,0 hPa 0,0 l/m 1,6 km/h (1 Bft) O-SO 112 5 min 2,4 UV-I 425 W/m 4,8 km/h (1 Bft)
22.03.2019 10:25 13,2 C 13,0 C 13,2 C 71 % 1032,0 hPa 0,0 l/m 1,6 km/h (1 Bft) S 180 5 min 2,5 UV-I 466 W/m 3,2 km/h (1 Bft)
22.03.2019 10:30 13,4 C 13,2 C 13,4 C 73 % 1031,9 hPa 0,0 l/m 1,6 km/h (1 Bft) S-SO 157 5 min 2,5 UV-I 434 W/m 6,4 km/h (2 Bft)
22.03.2019 10:35 13,8 C 13,5 C 13,8 C 70 % 1031,8 hPa 0,0 l/m 3,2 km/h (1 Bft) SO 135 5 min 2,6 UV-I 466 W/m 6,4 km/h (2 Bft)
22.03.2019 10:40 14,1 C 13,8 C 14,1 C 70 % 1031,7 hPa 0,0 l/m 3,2 km/h (1 Bft) O-SO 112 5 min 2,8 UV-I 492 W/m 4,8 km/h (1 Bft)
22.03.2019 10:45 14,3 C 14,1 C 14,3 C 67 % 1031,7 hPa 0,0 l/m 3,2 km/h (1 Bft) SO 135 5 min 2,9 UV-I 501 W/m 8,0 km/h (2 Bft)
22.03.2019 10:50 14,6 C 14,3 C 14,6 C 65 % 1031,6 hPa 0,0 l/m 3,2 km/h (1 Bft) O-SO 112 5 min 3,0 UV-I 504 W/m 8,0 km/h (2 Bft)
22.03.2019 10:55 14,8 C 14,6 C 14,8 C 65 % 1031,5 hPa 0,0 l/m 4,8 km/h (1 Bft) SO 135 5 min 3,1 UV-I 536 W/m 11,3 km/h (2 Bft)
22.03.2019 11:00 15,1 C 14,8 C 15,1 C 63 % 1031,4 hPa 0,0 l/m 4,8 km/h (1 Bft) O-SO 112 5 min 3,1 UV-I 534 W/m 11,3 km/h (2 Bft)
22.03.2019 11:05 15,2 C 15,0 C 15,2 C 61 % 1031,4 hPa 0,0 l/m 6,4 km/h (2 Bft) O-SO 112 5 min 3,2 UV-I 543 W/m 12,9 km/h (3 Bft)
22.03.2019 11:10 15,3 C 15,2 C 15,3 C 62 % 1031,3 hPa 0,0 l/m 6,4 km/h (2 Bft) O-SO 112 5 min 3,2 UV-I 548 W/m 11,3 km/h (2 Bft)
22.03.2019 11:15 15,6 C 15,3 C 15,6 C 60 % 1031,3 hPa 0,0 l/m 4,8 km/h (1 Bft) S-SO 157 5 min 3,3 UV-I 554 W/m 9,7 km/h (2 Bft)
22.03.2019 11:20 15,7 C 15,6 C 15,7 C 58 % 1031,3 hPa 0,0 l/m 4,8 km/h (1 Bft) S-SO 157 5 min 3,4 UV-I 561 W/m 11,3 km/h (2 Bft)
22.03.2019 11:25 16,0 C 15,7 C 16,0 C 57 % 1031,3 hPa 0,0 l/m 6,4 km/h (2 Bft) SO 135 5 min 3,4 UV-I 563 W/m 14,5 km/h (3 Bft)
22.03.2019 11:30 16,2 C 16,0 C 16,2 C 57 % 1031,3 hPa 0,0 l/m 4,8 km/h (1 Bft) SO 135 5 min 3,5 UV-I 564 W/m 14,5 km/h (3 Bft)
22.03.2019 11:35 16,5 C 16,2 C 16,5 C 55 % 1031,2 hPa 0,0 l/m 6,4 km/h (2 Bft) SO 135 5 min 3,6 UV-I 570 W/m 14,5 km/h (3 Bft)
22.03.2019 11:40 16,7 C 16,5 C 16,7 C 53 % 1031,1 hPa 0,0 l/m 8,0 km/h (2 Bft) O-SO 112 5 min 3,6 UV-I 575 W/m 12,9 km/h (3 Bft)
22.03.2019 11:45 16,9 C 16,7 C 16,9 C 52 % 1031,0 hPa 0,0 l/m 8,0 km/h (2 Bft) SO 135 5 min 3,6 UV-I 580 W/m 14,5 km/h (3 Bft)
22.03.2019 11:50 16,8 C 16,8 C 16,9 C 53 % 1031,0 hPa 0,0 l/m 8,0 km/h (2 Bft) SO 135 5 min 3,6 UV-I 584 W/m 12,9 km/h (3 Bft)
22.03.2019 11:55 17,1 C 16,8 C 17,1 C 52 % 1030,9 hPa 0,0 l/m 4,8 km/h (1 Bft) O-SO 112 5 min 3,7 UV-I 589 W/m 12,9 km/h (3 Bft)
22.03.2019 12:00 17,2 C 17,1 C 17,2 C 52 % 1030,8 hPa 0,0 l/m 8,0 km/h (2 Bft) SO 135 5 min 3,7 UV-I 591 W/m 12,9 km/h (3 Bft)
22.03.2019 12:05 17,3 C 17,2 C 17,3 C 52 % 1030,8 hPa 0,0 l/m 4,8 km/h (1 Bft) O-SO 112 5 min 3,7 UV-I 594 W/m 11,3 km/h (2 Bft)
22.03.2019 12:10 17,4 C 17,3 C 17,4 C 50 % 1030,7 hPa 0,0 l/m 6,4 km/h (2 Bft) SO 135 5 min 3,8 UV-I 598 W/m 12,9 km/h (3 Bft)
22.03.2019 12:15 17,7 C 17,4 C 17,7 C 50 % 1030,7 hPa 0,0 l/m 6,4 km/h (2 Bft) SO 135 5 min 3,8 UV-I 601 W/m 11,3 km/h (2 Bft)
22.03.2019 12:20 17,7 C 17,6 C 17,7 C 49 % 1030,7 hPa 0,0 l/m 6,4 km/h (2 Bft) O-SO 112 5 min 3,8 UV-I 601 W/m 11,3 km/h (2 Bft)
22.03.2019 12:25 17,8 C 17,7 C 17,8 C 51 % 1030,7 hPa 0,0 l/m 6,4 km/h (2 Bft) O-SO 112 5 min 3,8 UV-I 605 W/m 14,5 km/h (3 Bft)
22.03.2019 12:30 17,9 C 17,8 C 17,9 C 49 % 1030,6 hPa 0,0 l/m 4,8 km/h (1 Bft) O 90 5 min 3,8 UV-I 603 W/m 11,3 km/h (2 Bft)
22.03.2019 12:35 18,0 C 17,9 C 18,0 C 49 % 1030,5 hPa 0,0 l/m 4,8 km/h (1 Bft) O-SO 112 5 min 3,8 UV-I 603 W/m 12,9 km/h (3 Bft)
22.03.2019 12:40 18,1 C 18,0 C 18,1 C 50 % 1030,4 hPa 0,0 l/m 4,8 km/h (1 Bft) S-SO 157 5 min 3,8 UV-I 606 W/m 11,3 km/h (2 Bft)
22.03.2019 12:45 18,2 C 18,1 C 18,2 C 47 % 1030,3 hPa 0,0 l/m 6,4 km/h (2 Bft) S-SO 157 5 min 3,8 UV-I 606 W/m 12,9 km/h (3 Bft)
22.03.2019 12:50 18,3 C 18,2 C 18,3 C 48 % 1030,4 hPa 0,0 l/m 6,4 km/h (2 Bft) S-SO 157 5 min 3,8 UV-I 608 W/m 11,3 km/h (2 Bft)
22.03.2019 12:55 18,3 C 18,3 C 18,3 C 48 % 1030,3 hPa 0,0 l/m 6,4 km/h (2 Bft) S 180 5 min 3,8 UV-I 610 W/m 12,9 km/h (3 Bft)
22.03.2019 13:00 18,6 C 18,3 C 18,6 C 47 % 1030,2 hPa 0,0 l/m 6,4 km/h (2 Bft) SO 135 5 min 3,8 UV-I 606 W/m 11,3 km/h (2 Bft)
22.03.2019 13:05 18,7 C 18,6 C 18,7 C 44 % 1030,1 hPa 0,0 l/m 6,4 km/h (2 Bft) S-SO 157 5 min 3,8 UV-I 610 W/m 12,9 km/h (3 Bft)
22.03.2019 13:10 18,8 C 18,7 C 18,8 C 44 % 1030,0 hPa 0,0 l/m 6,4 km/h (2 Bft) SO 135 5 min 3,8 UV-I 608 W/m 12,9 km/h (3 Bft)
22.03.2019 13:15 18,9 C 18,8 C 18,9 C 44 % 1030,0 hPa 0,0 l/m 8,0 km/h (2 Bft) S-SO 157 5 min 3,8 UV-I 605 W/m 16,1 km/h (3 Bft)
22.03.2019 13:20 19,0 C 18,9 C 19,0 C 45 % 1029,8 hPa 0,0 l/m 8,0 km/h (2 Bft) S 180 5 min 3,7 UV-I 605 W/m 14,5 km/h (3 Bft)
22.03.2019 13:25 18,9 C 18,9 C 18,9 C 47 % 1029,7 hPa 0,0 l/m 8,0 km/h (2 Bft) S-SW 202 5 min 3,7 UV-I 603 W/m 16,1 km/h (3 Bft)
22.03.2019 13:30 19,1 C 18,9 C 19,1 C 45 % 1029,6 hPa 0,0 l/m 6,4 km/h (2 Bft) S-SO 157 5 min 3,7 UV-I 599 W/m 14,5 km/h (3 Bft)
22.03.2019 13:35 19,3 C 19,1 C 19,3 C 45 % 1029,6 hPa 0,0 l/m 8,0 km/h (2 Bft) S-SO 157 5 min 3,7 UV-I 598 W/m 14,5 km/h (3 Bft)
22.03.2019 13:40 19,4 C 19,3 C 19,5 C 42 % 1029,5 hPa 0,0 l/m 9,7 km/h (2 Bft) S 180 5 min 3,6 UV-I 596 W/m 14,5 km/h (3 Bft)
22.03.2019 13:45 19,6 C 19,4 C 19,6 C 42 % 1029,4 hPa 0,0 l/m 9,7 km/h (2 Bft) SO 135 5 min 3,6 UV-I 592 W/m 17,7 km/h (3 Bft)
22.03.2019 13:50 19,8 C 19,6 C 19,8 C 44 % 1029,3 hPa 0,0 l/m 8,0 km/h (2 Bft) SO 135 5 min 3,5 UV-I 587 W/m 14,5 km/h (3 Bft)
22.03.2019 13:55 19,8 C 19,8 C 19,8 C 43 % 1029,2 hPa 0,0 l/m 8,0 km/h (2 Bft) O-SO 112 5 min 3,5 UV-I 587 W/m 14,5 km/h (3 Bft)
22.03.2019 14:00 19,8 C 19,8 C 19,9 C 43 % 1029,3 hPa 0,0 l/m 8,0 km/h (2 Bft) S-SO 157 5 min 3,4 UV-I 582 W/m 14,5 km/h (3 Bft)
22.03.2019 14:05 19,9 C 19,8 C 19,9 C 43 % 1029,2 hPa 0,0 l/m 8,0 km/h (2 Bft) SO 135 5 min 3,4 UV-I 573 W/m 14,5 km/h (3 Bft)
22.03.2019 14:10 20,0 C 19,9 C 20,0 C 42 % 1029,0 hPa 0,0 l/m 9,7 km/h (2 Bft) SO 135 5 min 3,3 UV-I 566 W/m 16,1 km/h (3 Bft)
22.03.2019 14:15 19,9 C 19,9 C 20,0 C 43 % 1028,9 hPa 0,0 l/m 6,4 km/h (2 Bft) S 180 5 min 3,3 UV-I 564 W/m 12,9 km/h (3 Bft)
22.03.2019 14:20 20,1 C 19,9 C 20,1 C 42 % 1028,8 hPa 0,0 l/m 8,0 km/h (2 Bft) S-SO 157 5 min 3,2 UV-I 561 W/m 14,5 km/h (3 Bft)
22.03.2019 14:25 20,2 C 20,1 C 20,2 C 44 % 1028,7 hPa 0,0 l/m 8,0 km/h (2 Bft) S-SO 157 5 min 3,2 UV-I 555 W/m 16,1 km/h (3 Bft)
22.03.2019 14:30 20,3 C 20,2 C 20,3 C 42 % 1028,6 hPa 0,0 l/m 8,0 km/h (2 Bft) SO 135 5 min 3,1 UV-I 552 W/m 17,7 km/h (3 Bft)
22.03.2019 14:35 20,4 C 20,3 C 20,4 C 42 % 1028,5 hPa 0,0 l/m 6,4 km/h (2 Bft) S-SO 157 5 min 3,1 UV-I 543 W/m 12,9 km/h (3 Bft)
22.03.2019 14:40 20,4 C 20,4 C 20,6 C 46 % 1028,5 hPa 0,0 l/m 8,0 km/h (2 Bft) S 180 5 min 3,0 UV-I 536 W/m 12,9 km/h (3 Bft)
22.03.2019 14:45 20,6 C 20,4 C 20,6 C 42 % 1028,4 hPa 0,0 l/m 6,4 km/h (2 Bft) S-SO 157 5 min 2,9 UV-I 526 W/m 12,9 km/h (3 Bft)
22.03.2019 14:50 20,6 C 20,6 C 20,6 C 41 % 1028,3 hPa 0,0 l/m 8,0 km/h (2 Bft) S-SO 157 5 min 2,8 UV-I 520 W/m 14,5 km/h (3 Bft)
22.03.2019 14:55 20,8 C 20,6 C 20,8 C 41 % 1028,3 hPa 0,0 l/m 9,7 km/h (2 Bft) S-SO 157 5 min 2,8 UV-I 517 W/m 17,7 km/h (3 Bft)
22.03.2019 15:00 20,7 C 20,7 C 20,8 C 39 % 1028,3 hPa 0,0 l/m 9,7 km/h (2 Bft) S-SO 157 5 min 2,7 UV-I 512 W/m 16,1 km/h (3 Bft)
22.03.2019 15:05 20,7 C 20,7 C 20,7 C 40 % 1028,1 hPa 0,0 l/m 6,4 km/h (2 Bft) SO 135 5 min 2,7 UV-I 504 W/m 14,5 km/h (3 Bft)
22.03.2019 15:10 20,9 C 20,7 C 20,9 C 37 % 1028,1 hPa 0,0 l/m 8,0 km/h (2 Bft) S-SO 157 5 min 2,6 UV-I 496 W/m 17,7 km/h (3 Bft)
22.03.2019 15:15 20,9 C 20,9 C 21,1 C 36 % 1028,0 hPa 0,0 l/m 9,7 km/h (2 Bft) SO 135 5 min 2,5 UV-I 487 W/m 17,7 km/h (3 Bft)
22.03.2019 15:20 20,8 C 20,8 C 21,0 C 36 % 1027,9 hPa 0,0 l/m 8,0 km/h (2 Bft) O-SO 112 5 min 2,4 UV-I 478 W/m 14,5 km/h (3 Bft)
22.03.2019 15:25 20,8 C 20,8 C 20,8 C 36 % 1027,8 hPa 0,0 l/m 9,7 km/h (2 Bft) SO 135 5 min 2,3 UV-I 469 W/m 17,7 km/h (3 Bft)
22.03.2019 15:30 20,9 C 20,8 C 20,9 C 35 % 1027,9 hPa 0,0 l/m 8,0 km/h (2 Bft) SO 135 5 min 2,3 UV-I 462 W/m 17,7 km/h (3 Bft)
22.03.2019 15:35 20,9 C 20,9 C 20,9 C 33 % 1027,7 hPa 0,0 l/m 8,0 km/h (2 Bft) S-SO 157 5 min 2,2 UV-I 454 W/m 14,5 km/h (3 Bft)
22.03.2019 15:40 20,9 C 20,9 C 20,9 C 34 % 1027,6 hPa 0,0 l/m 9,7 km/h (2 Bft) SO 135 5 min 2,2 UV-I 446 W/m 16,1 km/h (3 Bft)
22.03.2019 15:45 20,8 C 20,8 C 20,9 C 33 % 1027,6 hPa 0,0 l/m 9,7 km/h (2 Bft) S 180 5 min 2,1 UV-I 432 W/m 22,5 km/h (4 Bft)
22.03.2019 15:50 20,8 C 20,8 C 20,8 C 33 % 1027,5 hPa 0,0 l/m 9,7 km/h (2 Bft) SO 135 5 min 2,0 UV-I 424 W/m 17,7 km/h (3 Bft)
22.03.2019 15:55 20,7 C 20,7 C 20,8 C 33 % 1027,5 hPa 0,0 l/m 9,7 km/h (2 Bft) SO 135 5 min 1,9 UV-I 413 W/m 19,3 km/h (3 Bft)
22.03.2019 16:00 20,4 C 20,4 C 20,7 C 34 % 1027,4 hPa 0,0 l/m 12,9 km/h (3 Bft) SO 135 5 min 1,8 UV-I 397 W/m 20,9 km/h (4 Bft)
22.03.2019 16:05 20,4 C 20,4 C 20,4 C 33 % 1027,5 hPa 0,0 l/m 8,0 km/h (2 Bft) S-SO 157 0 min 0,0 UV-I 30 W/m 14,5 km/h (3 Bft)
22.03.2019 16:10 20,2 C 20,2 C 20,4 C 35 % 1027,3 hPa 0,0 l/m 8,0 km/h (2 Bft) SO 135 0 min 0,0 UV-I 30 W/m 19,3 km/h (3 Bft)
22.03.2019 16:15 20,2 C 20,2 C 20,3 C 34 % 1027,3 hPa 0,0 l/m 8,0 km/h (2 Bft) SO 135 0 min 0,0 UV-I 30 W/m 14,5 km/h (3 Bft)
22.03.2019 16:20 20,2 C 20,2 C 20,2 C 34 % 1027,3 hPa 0,0 l/m 9,7 km/h (2 Bft) O-SO 112 0 min 0,0 UV-I 28 W/m 17,7 km/h (3 Bft)
22.03.2019 16:25 20,2 C 20,2 C 20,2 C 35 % 1027,1 hPa 0,0 l/m 8,0 km/h (2 Bft) O-SO 112 0 min 0,0 UV-I 28 W/m 14,5 km/h (3 Bft)
22.03.2019 16:30 20,2 C 20,2 C 20,2 C 35 % 1027,1 hPa 0,0 l/m 9,7 km/h (2 Bft) SO 135 0 min 0,0 UV-I 28 W/m 16,1 km/h (3 Bft)
22.03.2019 16:35 20,2 C 20,2 C 20,2 C 35 % 1027,1 hPa 0,0 l/m 9,7 km/h (2 Bft) SO 135 0 min 0,0 UV-I 28 W/m 17,7 km/h (3 Bft)
22.03.2019 16:40 20,2 C 20,2 C 20,3 C 35 % 1027,1 hPa 0,0 l/m 8,0 km/h (2 Bft) SO 135 0 min 0,0 UV-I 26 W/m 16,1 km/h (3 Bft)
22.03.2019 16:45 20,2 C 20,2 C 20,2 C 34 % 1027,1 hPa 0,0 l/m 8,0 km/h (2 Bft) SO 135 0 min 0,0 UV-I 26 W/m 16,1 km/h (3 Bft)
22.03.2019 16:50 20,2 C 20,1 C 20,2 C 34 % 1027,0 hPa 0,0 l/m 9,7 km/h (2 Bft) SO 135 0 min 0,0 UV-I 26 W/m 16,1 km/h (3 Bft)
22.03.2019 16:55 20,1 C 20,1 C 20,2 C 34 % 1026,9 hPa 0,0 l/m 9,7 km/h (2 Bft) SO 135 0 min 0,0 UV-I 25 W/m 16,1 km/h (3 Bft)
22.03.2019 17:00 20,1 C 20,1 C 20,1 C 35 % 1026,9 hPa 0,0 l/m 9,7 km/h (2 Bft) SO 135 0 min 0,0 UV-I 25 W/m 17,7 km/h (3 Bft)
22.03.2019 17:05 20,1 C 20,1 C 20,1 C 35 % 1026,9 hPa 0,0 l/m 8,0 km/h (2 Bft) O-SO 112 0 min 0,0 UV-I 25 W/m 14,5 km/h (3 Bft)
22.03.2019 17:10 20,1 C 20,1 C 20,1 C 37 % 1026,9 hPa 0,0 l/m 6,4 km/h (2 Bft) S-SO 157 0 min 0,0 UV-I 25 W/m 12,9 km/h (3 Bft)
22.03.2019 17:15 19,9 C 19,9 C 20,1 C 35 % 1026,9 hPa 0,0 l/m 6,4 km/h (2 Bft) SO 135 0 min 0,0 UV-I 25 W/m 14,5 km/h (3 Bft)
22.03.2019 17:20 19,8 C 19,8 C 19,9 C 36 % 1026,8 hPa 0,0 l/m 8,0 km/h (2 Bft) S-SO 157 0 min 0,0 UV-I 23 W/m 14,5 km/h (3 Bft)
22.03.2019 17:25 19,7 C 19,7 C 19,8 C 37 % 1026,9 hPa 0,0 l/m 6,4 km/h (2 Bft) S-SO 157 0 min 0,0 UV-I 25 W/m 12,9 km/h (3 Bft)
22.03.2019 17:30 19,7 C 19,7 C 19,7 C 37 % 1026,9 hPa 0,0 l/m 6,4 km/h (2 Bft) S-SO 157 5 min 0,5 UV-I 146 W/m 12,9 km/h (3 Bft)
22.03.2019 17:35 19,8 C 19,7 C 19,8 C 37 % 1027,0 hPa 0,0 l/m 6,4 km/h (2 Bft) S-SO 157 5 min 0,5 UV-I 146 W/m 11,3 km/h (2 Bft)
22.03.2019 17:40 19,8 C 19,8 C 19,9 C 36 % 1026,9 hPa 0,0 l/m 6,4 km/h (2 Bft) S-SO 157 5 min 0,0 UV-I 128 W/m 11,3 km/h (2 Bft)
22.03.2019 17:45 19,8 C 19,8 C 19,8 C 36 % 1026,9 hPa 0,0 l/m 6,4 km/h (2 Bft) SO 135 5 min 0,0 UV-I 95 W/m 14,5 km/h (3 Bft)
22.03.2019 17:50 19,8 C 19,8 C 19,8 C 37 % 1026,8 hPa 0,0 l/m 6,4 km/h (2 Bft) SO 135 5 min 0,0 UV-I 97 W/m 12,9 km/h (3 Bft)
22.03.2019 17:55 19,8 C 19,7 C 19,8 C 37 % 1026,7 hPa 0,0 l/m 6,4 km/h (2 Bft) SO 135 5 min 0,0 UV-I 86 W/m 9,7 km/h (2 Bft)
22.03.2019 18:00 19,6 C 19,6 C 19,7 C 37 % 1026,7 hPa 0,0 l/m 6,4 km/h (2 Bft) SO 135 5 min 0,0 UV-I 74 W/m 14,5 km/h (3 Bft)
22.03.2019 18:05 19,5 C 19,5 C 19,7 C 38 % 1026,7 hPa 0,0 l/m 6,4 km/h (2 Bft) SO 135 5 min 0,0 UV-I 62 W/m 12,9 km/h (3 Bft)
22.03.2019 18:10 19,3 C 19,3 C 19,5 C 38 % 1026,7 hPa 0,0 l/m 4,8 km/h (1 Bft) SO 135 0 min 0,0 UV-I 42 W/m 9,7 km/h (2 Bft)
22.03.2019 18:15 19,1 C 19,1 C 19,3 C 39 % 1026,7 hPa 0,0 l/m 4,8 km/h (1 Bft) SO 135 0 min 0,0 UV-I 35 W/m 9,7 km/h (2 Bft)
22.03.2019 18:20 18,9 C 18,9 C 19,1 C 39 % 1026,6 hPa 0,0 l/m 4,8 km/h (1 Bft) SO 135 0 min 0,0 UV-I 26 W/m 8,0 km/h (2 Bft)
22.03.2019 18:25 18,8 C 18,8 C 18,9 C 40 % 1026,7 hPa 0,0 l/m 4,8 km/h (1 Bft) SO 135 0 min 0,0 UV-I 21 W/m 9,7 km/h (2 Bft)
22.03.2019 18:30 18,6 C 18,6 C 18,8 C 40 % 1026,7 hPa 0,0 l/m 4,8 km/h (1 Bft) SO 135 0 min 0,0 UV-I 16 W/m 9,7 km/h (2 Bft)
22.03.2019 18:35 18,3 C 18,3 C 18,6 C 41 % 1026,5 hPa 0,0 l/m 3,2 km/h (1 Bft) SO 135 0 min 0,0 UV-I 11 W/m 8,0 km/h (2 Bft)
22.03.2019 18:40 18,1 C 18,1 C 18,3 C 41 % 1026,5 hPa 0,0 l/m 3,2 km/h (1 Bft) SO 135 0 min 0,0 UV-I 7 W/m 8,0 km/h (2 Bft)
22.03.2019 18:45 17,9 C 17,9 C 18,1 C 41 % 1026,6 hPa 0,0 l/m 3,2 km/h (1 Bft) SO 135 0 min 0,0 UV-I 5 W/m 6,4 km/h (2 Bft)
22.03.2019 18:50 17,8 C 17,8 C 17,9 C 42 % 1026,7 hPa 0,0 l/m 4,8 km/h (1 Bft) SO 135 0 min 0,0 UV-I 0 W/m 8,0 km/h (2 Bft)
22.03.2019 18:55 17,6 C 17,6 C 17,8 C 41 % 1026,7 hPa 0,0 l/m 4,8 km/h (1 Bft) SO 135 0 min 0,0 UV-I 0 W/m 8,0 km/h (2 Bft)
22.03.2019 19:00 17,5 C 17,5 C 17,6 C 42 % 1026,7 hPa 0,0 l/m 3,2 km/h (1 Bft) SO 135 0 min 0,0 UV-I 0 W/m 6,4 km/h (2 Bft)
22.03.2019 19:05 17,4 C 17,4 C 17,6 C 42 % 1026,7 hPa 0,0 l/m 3,2 km/h (1 Bft) O-SO 112 0 min 0,0 UV-I 0 W/m 4,8 km/h (1 Bft)
22.03.2019 19:10 17,2 C 17,2 C 17,4 C 43 % 1026,8 hPa 0,0 l/m 0,0 km/h (0 Bft) O-SO 112 0 min 0,0 UV-I 0 W/m 4,8 km/h (1 Bft)
22.03.2019 19:15 17,1 C 17,1 C 17,2 C 43 % 1026,8 hPa 0,0 l/m 0,0 km/h (0 Bft) SO 135 0 min 0,0 UV-I 0 W/m 4,8 km/h (1 Bft)
22.03.2019 19:20 16,9 C 16,9 C 17,1 C 43 % 1026,9 hPa 0,0 l/m 0,0 km/h (0 Bft) SO 135 0 min 0,0 UV-I 0 W/m 1,6 km/h (1 Bft)
22.03.2019 19:25 16,8 C 16,8 C 16,9 C 43 % 1026,9 hPa 0,0 l/m 0,0 km/h (0 Bft) SO 135 0 min 0,0 UV-I 0 W/m 1,6 km/h (1 Bft)
22.03.2019 19:30 16,7 C 16,7 C 16,8 C 44 % 1026,9 hPa 0,0 l/m 0,0 km/h (0 Bft) N 0 0 min 0,0 UV-I 0 W/m 0,0 km/h (0 Bft)
22.03.2019 19:35 16,4 C 16,4 C 16,6 C 45 % 1027,0 hPa 0,0 l/m 0,0 km/h (0 Bft) N 0 0 min 0,0 UV-I 0 W/m 0,0 km/h (0 Bft)
22.03.2019 19:40 16,2 C 16,2 C 16,4 C 47 % 1027,0 hPa 0,0 l/m 0,0 km/h (0 Bft) N 0 0 min 0,0 UV-I 0 W/m 0,0 km/h (0 Bft)
22.03.2019 19:45 15,8 C 15,8 C 16,2 C 48 % 1027,1 hPa 0,0 l/m 0,0 km/h (0 Bft) N 0 0 min 0,0 UV-I 0 W/m 0,0 km/h (0 Bft)
22.03.2019 19:50 15,4 C 15,4 C 15,8 C 49 % 1027,1 hPa 0,0 l/m 0,0 km/h (0 Bft) N 0 0 min 0,0 UV-I 0 W/m 0,0 km/h (0 Bft)
22.03.2019 19:55 15,2 C 15,1 C 15,4 C 50 % 1027,1 hPa 0,0 l/m 0,0 km/h (0 Bft) N 0 0 min 0,0 UV-I 0 W/m 0,0 km/h (0 Bft)
22.03.2019 20:00 14,9 C 14,9 C 15,1 C 51 % 1027,1 hPa 0,0 l/m 0,0 km/h (0 Bft) N 0 0 min 0,0 UV-I 0 W/m 0,0 km/h (0 Bft)
22.03.2019 20:05 14,6 C 14,6 C 14,9 C 52 % 1027,1 hPa 0,0 l/m 0,0 km/h (0 Bft) N 0 0 min 0,0 UV-I 0 W/m 0,0 km/h (0 Bft)
22.03.2019 20:10 14,4 C 14,4 C 14,6 C 52 % 1027,2 hPa 0,0 l/m 0,0 km/h (0 Bft) N 0 0 min 0,0 UV-I 0 W/m 0,0 km/h (0 Bft)
22.03.2019 20:15 14,3 C 14,3 C 14,4 C 56 % 1027,2 hPa 0,0 l/m 0,0 km/h (0 Bft) N 0 0 min 0,0 UV-I 0 W/m 0,0 km/h (0 Bft)
22.03.2019 20:20 13,9 C 13,9 C 14,3 C 58 % 1027,2 hPa 0,0 l/m 0,0 km/h (0 Bft) N 0 0 min 0,0 UV-I 0 W/m 0,0 km/h (0 Bft)
22.03.2019 20:25 13,4 C 13,4 C 13,9 C 61 % 1027,2 hPa 0,0 l/m 0,0 km/h (0 Bft) N 0 0 min 0,0 UV-I 0 W/m 0,0 km/h (0 Bft)
22.03.2019 20:30 13,1 C 13,1 C 13,3 C 62 % 1027,1 hPa 0,0 l/m 0,0 km/h (0 Bft) N 0 0 min 0,0 UV-I 0 W/m 0,0 km/h (0 Bft)
22.03.2019 20:35 12,8 C 12,8 C 13,1 C 62 % 1027,2 hPa 0,0 l/m 0,0 km/h (0 Bft) N 0 0 min 0,0 UV-I 0 W/m 0,0 km/h (0 Bft)
22.03.2019 20:40 12,5 C 12,5 C 12,8 C 62 % 1027,2 hPa 0,0 l/m 0,0 km/h (0 Bft) N 0 0 min 0,0 UV-I 0 W/m 0,0 km/h (0 Bft)
22.03.2019 20:45 12,2 C 12,2 C 12,5 C 62 % 1027,1 hPa 0,0 l/m 0,0 km/h (0 Bft) N 0 0 min 0,0 UV-I 0 W/m 0,0 km/h (0 Bft)
22.03.2019 20:50 12,1 C 12,1 C 12,3 C 63 % 1027,2 hPa 0,0 l/m 0,0 km/h (0 Bft) N 0 0 min 0,0 UV-I 0 W/m 0,0 km/h (0 Bft)
22.03.2019 20:55 12,0 C 12,0 C 12,1 C 63 % 1027,2 hPa 0,0 l/m 0,0 km/h (0 Bft) N 0 0 min 0,0 UV-I 0 W/m 0,0 km/h (0 Bft)
22.03.2019 21:00 12,1 C 12,0 C 12,1 C 62 % 1027,1 hPa 0,0 l/m 0,0 km/h (0 Bft) N 0 0 min 0,0 UV-I 0 W/m 0,0 km/h (0 Bft)
22.03.2019 21:05 12,1 C 12,0 C 12,1 C 61 % 1027,2 hPa 0,0 l/m 0,0 km/h (0 Bft) N 0 0 min 0,0 UV-I 0 W/m 0,0 km/h (0 Bft)
22.03.2019 21:10 12,2 C 12,1 C 12,2 C 62 % 1027,1 hPa 0,0 l/m 0,0 km/h (0 Bft) N 0 0 min 0,0 UV-I 0 W/m 0,0 km/h (0 Bft)
22.03.2019 21:15 12,2 C 12,2 C 12,2 C 61 % 1027,2 hPa 0,0 l/m 0,0 km/h (0 Bft) N 0 0 min 0,0 UV-I 0 W/m 0,0 km/h (0 Bft)
22.03.2019 21:20 12,2 C 12,2 C 12,2 C 61 % 1027,1 hPa 0,0 l/m 0,0 km/h (0 Bft) N 0 0 min 0,0 UV-I 0 W/m 0,0 km/h (0 Bft)
22.03.2019 21:25 12,2 C 12,2 C 12,2 C 62 % 1027,1 hPa 0,0 l/m 0,0 km/h (0 Bft) N 0 0 min 0,0 UV-I 0 W/m 0,0 km/h (0 Bft)
22.03.2019 21:30 11,2 C 11,2 C 12,2 C 67 % 1027,1 hPa 0,0 l/m 1,6 km/h (1 Bft) W 270 0 min 0,0 UV-I 0 W/m 6,4 km/h (2 Bft)
22.03.2019 21:35 10,5 C 10,5 C 11,2 C 69 % 1027,2 hPa 0,0 l/m 1,6 km/h (1 Bft) W-NW 292 0 min 0,0 UV-I 0 W/m 4,8 km/h (1 Bft)
22.03.2019 21:40 10,1 C 10,1 C 10,5 C 71 % 1027,2 hPa 0,0 l/m 0,0 km/h (0 Bft) N 0 0 min 0,0 UV-I 0 W/m 0,0 km/h (0 Bft)
22.03.2019 21:45 10,1 C 10,0 C 10,1 C 71 % 1027,2 hPa 0,0 l/m 0,0 km/h (0 Bft) N 0 0 min 0,0 UV-I 0 W/m 0,0 km/h (0 Bft)
22.03.2019 21:50 10,1 C 10,1 C 10,1 C 71 % 1027,1 hPa 0,0 l/m 0,0 km/h (0 Bft) N 0 0 min 0,0 UV-I 0 W/m 0,0 km/h (0 Bft)
22.03.2019 21:55 10,7 C 10,1 C 10,7 C 68 % 1027,2 hPa 0,0 l/m 1,6 km/h (1 Bft) SW 225 0 min 0,0 UV-I 0 W/m 8,0 km/h (2 Bft)
22.03.2019 22:00 11,1 C 10,8 C 11,1 C 66 % 1027,1 hPa 0,0 l/m 0,0 km/h (0 Bft) S-SW 202 0 min 0,0 UV-I 0 W/m 3,2 km/h (1 Bft)
22.03.2019 22:05 11,4 C 11,1 C 11,4 C 64 % 1027,2 hPa 0,0 l/m 0,0 km/h (0 Bft) N 0 0 min 0,0 UV-I 0 W/m 0,0 km/h (0 Bft)
22.03.2019 22:10 11,5 C 11,4 C 11,5 C 63 % 1027,2 hPa 0,0 l/m 0,0 km/h (0 Bft) N 0 0 min 0,0 UV-I 0 W/m 0,0 km/h (0 Bft)
22.03.2019 22:15 11,6 C 11,4 C 11,6 C 62 % 1027,2 hPa 0,0 l/m 0,0 km/h (0 Bft) N 0 0 min 0,0 UV-I 0 W/m 0,0 km/h (0 Bft)
22.03.2019 22:20 11,6 C 11,6 C 11,6 C 63 % 1027,1 hPa 0,0 l/m 1,6 km/h (1 Bft) SO 135 0 min 0,0 UV-I 0 W/m 4,8 km/h (1 Bft)
22.03.2019 22:25 11,8 C 11,6 C 11,8 C 61 % 1027,1 hPa 0,0 l/m 3,2 km/h (1 Bft) O-SO 112 0 min 0,0 UV-I 0 W/m 4,8 km/h (1 Bft)
22.03.2019 22:30 12,1 C 11,8 C 12,1 C 60 % 1027,2 hPa 0,0 l/m 3,2 km/h (1 Bft) SO 135 0 min 0,0 UV-I 0 W/m 6,4 km/h (2 Bft)
22.03.2019 22:35 12,2 C 12,1 C 12,2 C 60 % 1027,1 hPa 0,0 l/m 3,2 km/h (1 Bft) O-SO 112 0 min 0,0 UV-I 0 W/m 4,8 km/h (1 Bft)
22.03.2019 22:40 12,2 C 12,1 C 12,2 C 59 % 1027,1 hPa 0,0 l/m 3,2 km/h (1 Bft) O-SO 112 0 min 0,0 UV-I 0 W/m 6,4 km/h (2 Bft)
22.03.2019 22:45 12,3 C 12,2 C 12,3 C 58 % 1027,1 hPa 0,0 l/m 0,0 km/h (0 Bft) O-SO 112 0 min 0,0 UV-I 0 W/m 4,8 km/h (1 Bft)
22.03.2019 22:50 12,3 C 12,3 C 12,3 C 57 % 1027,1 hPa 0,0 l/m 1,6 km/h (1 Bft) SO 135 0 min 0,0 UV-I 0 W/m 6,4 km/h (2 Bft)
22.03.2019 22:55 12,2 C 12,2 C 12,4 C 60 % 1027,1 hPa 0,0 l/m 1,6 km/h (1 Bft) SO 135 0 min 0,0 UV-I 0 W/m 4,8 km/h (1 Bft)
22.03.2019 23:00 11,7 C 11,7 C 12,2 C 63 % 1027,2 hPa 0,0 l/m 0,0 km/h (0 Bft) W-NW 292 0 min 0,0 UV-I 0 W/m 1,6 km/h (1 Bft)
22.03.2019 23:05 11,2 C 11,2 C 11,6 C 64 % 1027,2 hPa 0,0 l/m 0,0 km/h (0 Bft) N 0 0 min 0,0 UV-I 0 W/m 0,0 km/h (0 Bft)
22.03.2019 23:10 10,8 C 10,8 C 11,2 C 65 % 1027,2 hPa 0,0 l/m 0,0 km/h (0 Bft) N 0 0 min 0,0 UV-I 0 W/m 0,0 km/h (0 Bft)
22.03.2019 23:15 10,6 C 10,6 C 10,8 C 65 % 1027,2 hPa 0,0 l/m 0,0 km/h (0 Bft) N 0 0 min 0,0 UV-I 0 W/m 0,0 km/h (0 Bft)
22.03.2019 23:20 10,4 C 10,4 C 10,6 C 66 % 1027,2 hPa 0,0 l/m 0,0 km/h (0 Bft) N 0 0 min 0,0 UV-I 0 W/m 0,0 km/h (0 Bft)
22.03.2019 23:25 10,3 C 10,3 C 10,4 C 66 % 1027,2 hPa 0,0 l/m 0,0 km/h (0 Bft) N 0 0 min 0,0 UV-I 0 W/m 0,0 km/h (0 Bft)
22.03.2019 23:30 10,5 C 10,3 C 10,5 C 66 % 1027,3 hPa 0,0 l/m 0,0 km/h (0 Bft) N 0 0 min 0,0 UV-I 0 W/m 0,0 km/h (0 Bft)
22.03.2019 23:35 10,5 C 10,5 C 10,6 C 66 % 1027,3 hPa 0,0 l/m 0,0 km/h (0 Bft) N 0 0 min 0,0 UV-I 0 W/m 0,0 km/h (0 Bft)
22.03.2019 23:40 10,4 C 10,4 C 10,5 C 66 % 1027,3 hPa 0,0 l/m 0,0 km/h (0 Bft) SW 225 0 min 0,0 UV-I 0 W/m 3,2 km/h (1 Bft)
22.03.2019 23:45 10,4 C 10,4 C 10,4 C 67 % 1027,4 hPa 0,0 l/m 3,2 km/h (1 Bft) W 270 0 min 0,0 UV-I 0 W/m 6,4 km/h (2 Bft)
22.03.2019 23:50 10,3 C 10,3 C 10,4 C 67 % 1027,4 hPa 0,0 l/m 3,2 km/h (1 Bft) W 270 0 min 0,0 UV-I 0 W/m 9,7 km/h (2 Bft)
22.03.2019 23:55 10,0 C 10,0 C 10,3 C 68 % 1027,4 hPa 0,0 l/m 4,8 km/h (1 Bft) W 270 0 min 0,0 UV-I 0 W/m 9,7 km/h (2 Bft)
_ Min-Zeit 06:55 06:55 07:05 15:35 18:35 - 00:00 - - - - - 01:20
Minimum _ 4,7 C 4,7 C 4,7 C 33 % 1026,5 hPa - 0,0 km/h (0 Bft) - - - - - 0,0 km/h (0 Bft)
_ Max-Zeit 15:15 15:15 15:15 07:50 00:00 00:00 16:00 - - 08:20 12:10 12:55 15:45
Maximum _ 21,1 C 20,9 C 21,1 C 95 % 1032,9 hPa 0,0 l/m 12,9 km/h
SO (3 Bft)
- - 5 min 3,8 UV-I 610 W/m 22,5 km/h
S-SO (4 Bft)
Durchschnitt _ 12,5 C 12,4 C 12,6 C 67 % 1029,9 hPa #0,0 l/m 2,9 km/h (1 Bft) SO - #8:15 h 2,6 UV-I 325 W/m 5,9 km/h (2 Bft)